createdAt,value
2023-01-30T00:00:16.458Z,81.38
2023-01-30T00:01:16.379Z,81.27
2023-01-30T00:02:16.702Z,81.59
2023-01-30T00:03:16.948Z,81.59
2023-01-30T00:04:17.588Z,81.38
2023-01-30T00:05:17.587Z,81.38
2023-01-30T00:06:17.797Z,81.38
2023-01-30T00:07:18.135Z,81.27
2023-01-30T00:08:18.328Z,81.27
2023-01-30T00:09:18.690Z,81.27
2023-01-30T00:10:19.223Z,81.06
2023-01-30T00:11:19.334Z,81.27
2023-01-30T00:12:19.593Z,81.27
2023-01-30T00:13:19.952Z,81.38
2023-01-30T00:14:20.183Z,81.38
2023-01-30T00:15:20.520Z,81.27
2023-01-30T00:16:20.796Z,81.06
2023-01-30T00:17:21.028Z,80.96
2023-01-30T00:18:21.379Z,81.06
2023-01-30T00:19:21.729Z,81.06
2023-01-30T00:20:22.059Z,81.27
2023-01-30T00:21:22.226Z,81.38
2023-01-30T00:22:22.492Z,81.38
2023-01-30T00:23:22.807Z,81.48
2023-01-30T00:24:23.266Z,81.73
2023-01-30T00:25:23.540Z,81.83
2023-01-30T00:26:23.685Z,82.04
2023-01-30T00:27:23.938Z,82.35
2023-01-30T00:28:24.136Z,82.25
2023-01-30T00:29:24.480Z,82.04
2023-01-30T00:30:24.732Z,82.00
2023-01-30T00:31:24.958Z,81.93
2023-01-30T00:32:25.201Z,81.90
2023-01-30T00:33:25.465Z,82.04
2023-01-30T00:34:25.832Z,82.14
2023-01-30T00:35:26.105Z,82.00
2023-01-30T00:36:26.431Z,82.00
2023-01-30T00:37:26.796Z,81.90
2023-01-30T00:38:27.048Z,81.79
2023-01-30T00:39:27.383Z,81.79
2023-01-30T00:40:27.611Z,81.90
2023-01-30T00:41:27.918Z,81.90
2023-01-30T00:42:28.268Z,81.69
2023-01-30T00:43:28.592Z,81.69
2023-01-30T00:44:28.953Z,81.69
2023-01-30T00:45:29.232Z,81.69
2023-01-30T00:46:29.458Z,81.79
2023-01-30T00:47:29.786Z,81.69
2023-01-30T00:48:30.075Z,81.48
2023-01-30T00:49:31.888Z,81.59
2023-01-30T00:50:30.666Z,81.83
2023-01-30T00:51:31.038Z,82.00
2023-01-30T00:52:31.442Z,82.14
2023-01-30T00:53:31.676Z,82.25
2023-01-30T00:54:31.938Z,82.35
2023-01-30T00:55:32.136Z,82.35
2023-01-30T00:56:32.443Z,82.46
2023-01-30T00:57:32.800Z,82.56
2023-01-30T00:58:32.997Z,82.46
2023-01-30T00:59:33.304Z,82.46
2023-01-30T01:00:33.480Z,82.56
2023-01-30T01:01:33.807Z,82.67
2023-01-30T01:02:34.149Z,82.77
2023-01-30T01:03:34.363Z,82.77
2023-01-30T01:04:34.678Z,82.67
2023-01-30T01:05:34.989Z,82.87
2023-01-30T01:06:35.327Z,83.08
2023-01-30T01:07:35.755Z,83.18
2023-01-30T01:08:35.925Z,83.18
2023-01-30T01:09:36.249Z,82.73
2023-01-30T01:10:36.441Z,82.73
2023-01-30T01:11:36.819Z,82.84
2023-01-30T01:12:36.996Z,82.73
2023-01-30T01:13:37.343Z,82.94
2023-01-30T01:14:37.674Z,82.53
2023-01-30T01:15:37.969Z,82.42
2023-01-30T01:16:38.194Z,82.42
2023-01-30T01:17:38.534Z,82.31
2023-01-30T01:18:38.751Z,82.31
2023-01-30T01:19:39.176Z,82.31
2023-01-30T01:20:39.379Z,82.21
2023-01-30T01:21:39.692Z,82.46
2023-01-30T01:22:40.016Z,82.53
2023-01-30T01:23:40.348Z,82.31
2023-01-30T01:24:40.699Z,82.21
2023-01-30T01:25:41.026Z,82.21
2023-01-30T01:26:41.284Z,82.31
2023-01-30T01:27:41.473Z,82.42
2023-01-30T01:28:41.760Z,82.53
2023-01-30T01:29:42.173Z,82.42
2023-01-30T01:30:42.417Z,82.21
2023-01-30T01:31:42.880Z,82.21
2023-01-30T01:32:42.944Z,82.21
2023-01-30T01:33:43.354Z,82.10
2023-01-30T01:34:43.531Z,82.21
2023-01-30T01:35:43.859Z,82.31
2023-01-30T01:36:59.694Z,82.21
2023-01-30T01:37:45.429Z,82.42
2023-01-30T01:38:44.655Z,82.31
2023-01-30T01:39:45.028Z,82.42
2023-01-30T01:40:45.190Z,82.42
2023-01-30T01:41:45.582Z,82.31
2023-01-30T01:42:45.940Z,82.10
2023-01-30T01:43:46.197Z,82.21
2023-01-30T01:44:46.398Z,82.00
2023-01-30T01:45:46.736Z,82.10
2023-01-30T01:46:47.025Z,82.10
2023-01-30T01:47:47.339Z,81.86
2023-01-30T01:48:47.769Z,81.76
2023-01-30T01:49:48.014Z,81.59
2023-01-30T01:50:48.381Z,81.48
2023-01-30T01:51:48.604Z,81.59
2023-01-30T01:52:50.746Z,81.69
2023-01-30T01:53:49.164Z,81.90
2023-01-30T01:54:49.454Z,82.00
2023-01-30T01:55:49.847Z,82.00
2023-01-30T01:56:50.045Z,81.69
2023-01-30T01:57:50.379Z,81.48
2023-01-30T01:58:50.696Z,81.34
2023-01-30T01:59:51.017Z,81.13
2023-01-30T02:00:51.348Z,81.02
2023-01-30T02:01:51.676Z,81.13
2023-01-30T02:02:52.000Z,81.23
2023-01-30T02:03:52.327Z,81.38
2023-01-30T02:04:52.631Z,81.59
2023-01-30T02:05:52.877Z,81.90
2023-01-30T02:06:53.070Z,82.00
2023-01-30T02:07:53.423Z,82.00
2023-01-30T02:08:53.710Z,81.79
2023-01-30T02:09:54.101Z,81.55
2023-01-30T02:10:54.329Z,81.59
2023-01-30T02:11:54.647Z,81.65
2023-01-30T02:12:54.895Z,81.59
2023-01-30T02:13:55.117Z,81.79
2023-01-30T02:14:55.307Z,81.90
2023-01-30T02:15:55.645Z,82.00
2023-01-30T02:16:55.988Z,81.90
2023-01-30T02:17:56.303Z,81.76
2023-01-30T02:18:56.641Z,81.69
2023-01-30T02:19:56.951Z,81.65
2023-01-30T02:20:57.269Z,81.65
2023-01-30T02:21:57.602Z,81.79
2023-01-30T02:22:57.914Z,81.79
2023-01-30T02:23:59.166Z,81.79
2023-01-30T02:24:58.479Z,81.76
2023-01-30T02:25:58.950Z,81.76
2023-01-30T02:26:59.125Z,81.76
2023-01-30T02:27:59.494Z,81.65
2023-01-30T02:28:59.887Z,81.45
2023-01-30T02:30:00.108Z,81.34
2023-01-30T02:31:00.460Z,81.79
2023-01-30T02:32:00.554Z,82.10
2023-01-30T02:33:00.861Z,82.31
2023-01-30T02:34:01.237Z,82.31
2023-01-30T02:35:01.402Z,82.31
2023-01-30T02:36:01.783Z,82.53
2023-01-30T02:37:02.111Z,82.73
2023-01-30T02:38:02.305Z,82.94
2023-01-30T02:39:02.615Z,83.04
2023-01-30T02:40:02.956Z,82.94
2023-01-30T02:41:03.276Z,82.94
2023-01-30T02:42:03.607Z,82.94
2023-01-30T02:43:03.905Z,82.73
2023-01-30T02:44:04.232Z,82.63
2023-01-30T02:45:04.572Z,82.63
2023-01-30T02:46:04.947Z,82.63
2023-01-30T02:47:05.142Z,82.59
2023-01-30T02:48:05.474Z,82.59
2023-01-30T02:49:05.799Z,82.59
2023-01-30T02:50:06.168Z,82.70
2023-01-30T02:51:06.379Z,82.70
2023-01-30T02:52:06.731Z,82.84
2023-01-30T02:53:06.994Z,82.80
2023-01-30T02:54:07.327Z,82.59
2023-01-30T02:55:07.623Z,82.48
2023-01-30T02:56:08.001Z,82.59
2023-01-30T02:57:08.340Z,82.73
2023-01-30T02:58:08.652Z,82.73
2023-01-30T02:59:09.038Z,83.04
2023-01-30T03:00:09.237Z,83.04
2023-01-30T03:01:09.552Z,83.04
2023-01-30T03:02:09.935Z,83.15
2023-01-30T03:03:10.126Z,83.36
2023-01-30T03:04:10.501Z,83.36
2023-01-30T03:05:10.713Z,83.15
2023-01-30T03:06:10.922Z,83.15
2023-01-30T03:07:11.254Z,83.15
2023-01-30T03:08:11.579Z,83.15
2023-01-30T03:09:11.744Z,83.15
2023-01-30T03:10:12.055Z,82.84
2023-01-30T03:11:12.346Z,82.84
2023-01-30T03:12:12.605Z,82.94
2023-01-30T03:13:12.844Z,82.84
2023-01-30T03:14:13.139Z,82.84
2023-01-30T03:15:13.438Z,82.84
2023-01-30T03:16:13.981Z,82.73
2023-01-30T03:17:14.000Z,82.53
2023-01-30T03:18:14.429Z,82.77
2023-01-30T03:19:14.595Z,82.87
2023-01-30T03:20:14.909Z,82.98
2023-01-30T03:21:15.272Z,83.18
2023-01-30T03:22:15.591Z,83.29
2023-01-30T03:23:15.787Z,83.61
2023-01-30T03:24:16.172Z,83.71
2023-01-30T03:25:16.652Z,83.71
2023-01-30T03:26:16.693Z,83.61
2023-01-30T03:27:16.893Z,83.61
2023-01-30T03:28:17.227Z,83.40
2023-01-30T03:29:17.587Z,83.47
2023-01-30T03:30:17.920Z,83.61
2023-01-30T03:31:18.403Z,83.71
2023-01-30T03:32:18.527Z,83.81
2023-01-30T03:33:18.855Z,83.92
2023-01-30T03:34:19.190Z,84.02
2023-01-30T03:35:19.841Z,84.12
2023-01-30T03:36:19.823Z,84.12
2023-01-30T03:37:20.048Z,83.92
2023-01-30T03:38:20.792Z,83.78
2023-01-30T03:39:20.673Z,83.57
2023-01-30T03:40:20.978Z,83.36
2023-01-30T03:41:21.348Z,83.36
2023-01-30T03:42:21.622Z,83.25
2023-01-30T03:43:21.952Z,83.36
2023-01-30T03:44:22.350Z,83.81
2023-01-30T03:45:22.503Z,84.02
2023-01-30T03:46:22.914Z,84.34
2023-01-30T03:47:24.105Z,84.34
2023-01-30T03:48:23.446Z,84.23
2023-01-30T03:49:23.747Z,84.23
2023-01-30T03:50:24.119Z,84.23
2023-01-30T03:51:24.459Z,84.23
2023-01-30T03:52:24.719Z,84.23
2023-01-30T03:53:24.885Z,84.34
2023-01-30T03:54:25.175Z,84.44
2023-01-30T03:55:25.419Z,84.75
2023-01-30T03:56:25.808Z,84.65
2023-01-30T03:57:26.044Z,84.75
2023-01-30T03:58:26.337Z,84.75
2023-01-30T03:59:26.719Z,84.86
2023-01-30T04:00:27.083Z,84.96
2023-01-30T04:01:27.322Z,85.06
2023-01-30T04:02:27.688Z,85.38
2023-01-30T04:03:27.924Z,85.27
2023-01-30T04:04:28.165Z,85.03
2023-01-30T04:05:28.714Z,84.92
2023-01-30T04:06:28.748Z,85.03
2023-01-30T04:07:29.052Z,85.06
2023-01-30T04:08:29.506Z,85.17
2023-01-30T04:09:29.635Z,85.17
2023-01-30T04:10:30.090Z,85.03
2023-01-30T04:11:30.254Z,85.17
2023-01-30T04:12:30.630Z,85.27
2023-01-30T04:13:30.811Z,85.38
2023-01-30T04:14:31.164Z,85.49
2023-01-30T04:15:31.462Z,85.59
2023-01-30T04:16:31.897Z,85.69
2023-01-30T04:17:32.081Z,85.59
2023-01-30T04:18:32.454Z,85.34
2023-01-30T04:19:32.642Z,85.49
2023-01-30T04:20:33.029Z,85.24
2023-01-30T04:21:33.335Z,85.27
2023-01-30T04:22:33.574Z,85.38
2023-01-30T04:23:33.931Z,85.24
2023-01-30T04:24:34.271Z,85.27
2023-01-30T04:25:34.518Z,85.27
2023-01-30T04:26:34.866Z,85.38
2023-01-30T04:27:35.156Z,85.59
2023-01-30T04:28:35.525Z,85.49
2023-01-30T04:29:35.842Z,85.49
2023-01-30T04:30:36.228Z,85.49
2023-01-30T04:31:36.509Z,85.49
2023-01-30T04:32:36.666Z,85.59
2023-01-30T04:33:37.022Z,85.59
2023-01-30T04:34:37.261Z,85.69
2023-01-30T04:35:37.648Z,85.69
2023-01-30T04:36:37.852Z,85.69
2023-01-30T04:37:38.124Z,85.90
2023-01-30T04:38:38.386Z,86.00
2023-01-30T04:39:38.652Z,85.80
2023-01-30T04:40:39.065Z,85.69
2023-01-30T04:41:39.284Z,85.69
2023-01-30T04:42:39.626Z,85.55
2023-01-30T04:43:39.941Z,85.44
2023-01-30T04:44:40.297Z,85.34
2023-01-30T04:45:40.604Z,85.24
2023-01-30T04:46:40.976Z,85.24
2023-01-30T04:47:41.197Z,85.49
2023-01-30T04:48:41.591Z,85.80
2023-01-30T04:49:41.787Z,86.21
2023-01-30T04:50:42.167Z,86.43
2023-01-30T04:51:42.490Z,86.32
2023-01-30T04:52:42.678Z,86.32
2023-01-30T04:53:42.945Z,86.43
2023-01-30T04:54:43.274Z,86.43
2023-01-30T04:55:43.596Z,86.43
2023-01-30T04:56:43.937Z,86.32
2023-01-30T04:57:44.244Z,86.32
2023-01-30T04:58:44.575Z,86.32
2023-01-30T04:59:44.888Z,86.28
2023-01-30T05:00:45.213Z,86.43
2023-01-30T05:01:45.444Z,86.63
2023-01-30T05:02:45.783Z,86.63
2023-01-30T05:03:46.117Z,86.59
2023-01-30T05:04:46.434Z,86.69
2023-01-30T05:05:46.830Z,86.59
2023-01-30T05:06:47.013Z,86.49
2023-01-30T05:07:47.291Z,86.59
2023-01-30T05:08:47.508Z,86.69
2023-01-30T05:09:47.825Z,86.80
2023-01-30T05:10:48.054Z,86.91
2023-01-30T05:11:48.391Z,86.91
2023-01-30T05:12:48.684Z,86.91
2023-01-30T05:13:49.009Z,86.91
2023-01-30T05:14:49.318Z,87.01
2023-01-30T05:15:49.623Z,87.12
2023-01-30T05:16:50.085Z,87.22
2023-01-30T05:17:50.248Z,87.43
2023-01-30T05:18:50.576Z,87.43
2023-01-30T05:19:50.815Z,87.43
2023-01-30T05:20:51.167Z,87.43
2023-01-30T05:21:51.465Z,87.43
2023-01-30T05:22:51.834Z,87.53
2023-01-30T05:23:52.016Z,87.63
2023-01-30T05:24:52.404Z,87.74
2023-01-30T05:25:52.622Z,87.74
2023-01-30T05:26:52.958Z,87.63
2023-01-30T05:27:53.275Z,87.63
2023-01-30T05:28:53.636Z,87.74
2023-01-30T05:29:53.955Z,87.84
2023-01-30T05:30:54.418Z,87.95
2023-01-30T05:31:54.593Z,87.95
2023-01-30T05:32:54.951Z,88.06
2023-01-30T05:33:55.235Z,88.16
2023-01-30T05:34:55.615Z,88.01
2023-01-30T05:35:55.904Z,87.91
2023-01-30T05:36:56.278Z,87.81
2023-01-30T05:37:56.592Z,87.81
2023-01-30T05:38:56.871Z,87.70
2023-01-30T05:39:57.178Z,87.81
2023-01-30T05:40:57.488Z,87.91
2023-01-30T05:41:57.841Z,87.91
2023-01-30T05:42:58.164Z,88.01
2023-01-30T05:43:58.472Z,88.12
2023-01-30T05:44:58.839Z,88.22
2023-01-30T05:45:59.083Z,88.32
2023-01-30T05:46:59.448Z,88.32
2023-01-30T05:48:01.608Z,88.32
2023-01-30T05:49:00.037Z,88.32
2023-01-30T05:50:00.294Z,88.43
2023-01-30T05:51:00.631Z,88.32
2023-01-30T05:52:01.014Z,88.22
2023-01-30T05:53:01.157Z,88.12
2023-01-30T05:54:01.470Z,88.22
2023-01-30T05:55:01.821Z,88.43
2023-01-30T05:56:02.081Z,88.43
2023-01-30T05:57:02.471Z,88.43
2023-01-30T05:58:02.620Z,88.43
2023-01-30T05:59:03.362Z,88.39
2023-01-30T06:00:03.262Z,88.18
2023-01-30T06:01:03.618Z,88.08
2023-01-30T06:02:03.932Z,88.08
2023-01-30T06:03:04.236Z,88.32
2023-01-30T06:04:04.703Z,88.49
2023-01-30T06:05:04.874Z,88.43
2023-01-30T06:06:04.995Z,88.53
2023-01-30T06:07:05.270Z,88.49
2023-01-30T06:08:05.639Z,88.39
2023-01-30T06:09:05.934Z,88.29
2023-01-30T06:10:06.216Z,88.18
2023-01-30T06:11:06.671Z,88.08
2023-01-30T06:12:06.849Z,88.08
2023-01-30T06:13:07.228Z,88.08
2023-01-30T06:14:07.499Z,88.08
2023-01-30T06:15:07.821Z,87.97
2023-01-30T06:16:08.609Z,87.87
2023-01-30T06:17:13.704Z,87.73
2023-01-30T06:18:08.629Z,87.87
2023-01-30T06:19:08.928Z,87.97
2023-01-30T06:20:09.108Z,88.08
2023-01-30T06:21:09.464Z,88.18
2023-01-30T06:22:09.806Z,88.14
2023-01-30T06:23:10.043Z,88.18
2023-01-30T06:24:10.670Z,88.49
2023-01-30T06:25:10.609Z,88.66
2023-01-30T06:26:11.066Z,88.66
2023-01-30T06:27:11.227Z,88.66
2023-01-30T06:28:11.456Z,88.66
2023-01-30T06:29:11.809Z,88.66
2023-01-30T06:30:12.111Z,88.66
2023-01-30T06:31:12.478Z,88.56
2023-01-30T06:32:12.819Z,88.66
2023-01-30T06:33:13.157Z,88.56
2023-01-30T06:34:13.437Z,88.56
2023-01-30T06:35:13.685Z,88.42
2023-01-30T06:36:13.868Z,88.31
2023-01-30T06:37:14.147Z,88.31
2023-01-30T06:38:14.493Z,88.24
2023-01-30T06:39:14.689Z,88.35
2023-01-30T06:40:14.902Z,88.45
2023-01-30T06:41:15.223Z,88.42
2023-01-30T06:42:15.435Z,88.42
2023-01-30T06:43:15.745Z,88.42
2023-01-30T06:44:16.059Z,88.66
2023-01-30T06:45:16.807Z,88.87
2023-01-30T06:46:16.714Z,88.98
2023-01-30T06:47:16.785Z,88.87
2023-01-30T06:48:17.020Z,88.98
2023-01-30T06:49:17.345Z,88.87
2023-01-30T06:50:17.599Z,88.87
2023-01-30T06:51:17.906Z,88.98
2023-01-30T06:52:18.231Z,89.08
2023-01-30T06:53:18.496Z,89.29
2023-01-30T06:54:18.712Z,89.39
2023-01-30T06:55:19.483Z,89.50
2023-01-30T06:56:19.773Z,89.60
2023-01-30T06:57:19.653Z,89.70
2023-01-30T06:58:19.937Z,89.70
2023-01-30T06:59:22.053Z,89.91
2023-01-30T07:00:20.431Z,89.91
2023-01-30T07:01:20.698Z,89.91
2023-01-30T07:02:21.011Z,90.06
2023-01-30T07:03:21.279Z,90.26
2023-01-30T07:04:21.589Z,90.33
2023-01-30T07:05:21.925Z,90.12
2023-01-30T07:06:22.173Z,90.16
2023-01-30T07:07:22.461Z,90.22
2023-01-30T07:08:24.320Z,90.33
2023-01-30T07:09:22.965Z,90.33
2023-01-30T07:10:23.202Z,90.22
2023-01-30T07:11:23.531Z,90.12
2023-01-30T07:12:23.774Z,90.22
2023-01-30T07:13:24.052Z,90.33
2023-01-30T07:14:24.319Z,90.33
2023-01-30T07:15:24.667Z,90.33
2023-01-30T07:16:24.960Z,90.33
2023-01-30T07:17:25.204Z,90.33
2023-01-30T07:18:25.470Z,90.37
2023-01-30T07:19:26.688Z,90.47
2023-01-30T07:20:25.988Z,90.89
2023-01-30T07:21:27.218Z,90.89
2023-01-30T07:22:26.486Z,90.89
2023-01-30T07:23:26.796Z,91.00
2023-01-30T07:24:27.989Z,90.79
2023-01-30T07:25:27.423Z,90.79
2023-01-30T07:26:27.745Z,90.68
2023-01-30T07:27:27.965Z,90.79
2023-01-30T07:28:28.248Z,90.89
2023-01-30T07:29:28.608Z,91.10
2023-01-30T07:30:29.023Z,91.20
2023-01-30T07:31:29.234Z,91.20
2023-01-30T07:32:29.454Z,91.20
2023-01-30T07:33:29.717Z,91.10
2023-01-30T07:34:29.967Z,90.89
2023-01-30T07:35:30.267Z,91.00
2023-01-30T07:36:30.467Z,91.20
2023-01-30T07:37:30.751Z,91.20
2023-01-30T07:38:31.076Z,91.20
2023-01-30T07:39:31.299Z,91.20
2023-01-30T07:40:31.626Z,91.06
2023-01-30T07:41:31.926Z,90.95
2023-01-30T07:42:32.171Z,90.75
2023-01-30T07:43:32.465Z,90.54
2023-01-30T07:44:32.696Z,90.44
2023-01-30T07:45:32.987Z,90.44
2023-01-30T07:46:33.326Z,90.33
2023-01-30T07:47:33.605Z,90.22
2023-01-30T07:48:33.931Z,90.33
2023-01-30T07:49:34.273Z,90.75
2023-01-30T07:50:34.491Z,90.95
2023-01-30T07:51:34.732Z,90.95
2023-01-30T07:52:35.000Z,90.95
2023-01-30T07:53:35.298Z,90.95
2023-01-30T07:54:35.522Z,90.85
2023-01-30T07:55:35.802Z,90.54
2023-01-30T07:56:36.081Z,90.44
2023-01-30T07:57:36.370Z,90.54
2023-01-30T07:58:36.707Z,90.44
2023-01-30T07:59:37.033Z,90.54
2023-01-30T08:00:39.144Z,90.75
2023-01-30T08:01:37.518Z,90.85
2023-01-30T08:02:37.827Z,90.85
2023-01-30T08:03:38.063Z,90.85
2023-01-30T08:04:38.445Z,90.75
2023-01-30T08:05:38.688Z,90.75
2023-01-30T08:06:39.071Z,90.64
2023-01-30T08:07:39.172Z,90.64
2023-01-30T08:08:39.503Z,90.54
2023-01-30T08:09:39.719Z,90.44
2023-01-30T08:10:40.025Z,90.54
2023-01-30T08:11:40.277Z,90.54
2023-01-30T08:12:40.564Z,90.75
2023-01-30T08:13:40.818Z,91.00
2023-01-30T08:14:41.150Z,91.06
2023-01-30T08:15:41.395Z,91.06
2023-01-30T08:16:41.734Z,90.85
2023-01-30T08:17:42.004Z,90.85
2023-01-30T08:18:42.271Z,90.75
2023-01-30T08:19:42.529Z,90.75
2023-01-30T08:20:42.830Z,90.75
2023-01-30T08:21:43.113Z,90.75
2023-01-30T08:22:43.396Z,90.95
2023-01-30T08:23:43.664Z,90.95
2023-01-30T08:24:43.960Z,91.06
2023-01-30T08:25:44.319Z,91.16
2023-01-30T08:26:44.642Z,91.06
2023-01-30T08:27:44.878Z,90.95
2023-01-30T08:28:45.602Z,90.95
2023-01-30T08:29:45.560Z,91.06
2023-01-30T08:30:45.739Z,90.95
2023-01-30T08:31:46.168Z,90.95
2023-01-30T08:32:46.294Z,91.06
2023-01-30T08:33:46.593Z,91.16
2023-01-30T08:34:46.924Z,91.06
2023-01-30T08:35:47.182Z,91.16
2023-01-30T08:36:47.433Z,91.27
2023-01-30T08:37:47.720Z,91.16
2023-01-30T08:38:48.136Z,91.02
2023-01-30T08:39:48.351Z,90.91
2023-01-30T08:40:48.652Z,90.91
2023-01-30T08:41:48.975Z,90.91
2023-01-30T08:42:49.274Z,90.81
2023-01-30T08:43:49.564Z,90.70
2023-01-30T08:44:49.836Z,90.70
2023-01-30T08:45:50.201Z,90.60
2023-01-30T08:46:50.328Z,90.56
2023-01-30T08:47:50.650Z,90.35
2023-01-30T08:48:50.913Z,90.25
2023-01-30T08:49:51.235Z,90.04
2023-01-30T08:50:51.563Z,90.04
2023-01-30T08:51:51.789Z,90.00
2023-01-30T08:52:52.088Z,89.89
2023-01-30T08:53:52.322Z,89.69
2023-01-30T08:54:52.597Z,89.58
2023-01-30T08:55:52.885Z,89.58
2023-01-30T08:56:53.147Z,89.48
2023-01-30T08:57:53.685Z,89.48
2023-01-30T08:58:53.765Z,89.33
2023-01-30T08:59:54.094Z,89.12
2023-01-30T09:00:54.374Z,88.81
2023-01-30T09:01:54.847Z,88.71
2023-01-30T09:02:55.804Z,88.60
2023-01-30T09:03:55.385Z,88.46
2023-01-30T09:04:55.551Z,88.50
2023-01-30T09:05:56.162Z,88.56
2023-01-30T09:06:56.028Z,88.46
2023-01-30T09:07:56.345Z,88.35
2023-01-30T09:09:04.770Z,88.35
2023-01-30T09:09:56.969Z,88.35
2023-01-30T09:10:57.214Z,88.46
2023-01-30T09:11:57.490Z,88.35
2023-01-30T09:12:57.794Z,88.35
2023-01-30T09:13:58.088Z,88.25
2023-01-30T09:14:58.373Z,88.21
2023-01-30T09:15:58.625Z,87.90
2023-01-30T09:16:58.973Z,87.79
2023-01-30T09:17:59.280Z,87.69
2023-01-30T09:18:59.528Z,87.79
2023-01-30T09:19:59.873Z,87.69
2023-01-30T09:21:00.114Z,87.69
2023-01-30T09:22:00.464Z,87.59
2023-01-30T09:23:00.639Z,87.34
2023-01-30T09:24:00.970Z,87.13
2023-01-30T09:25:01.172Z,86.93
2023-01-30T09:26:01.473Z,86.72
2023-01-30T09:27:01.688Z,86.36
2023-01-30T09:28:02.002Z,86.16
2023-01-30T09:29:02.238Z,85.85
2023-01-30T09:30:02.597Z,85.85
2023-01-30T09:31:02.984Z,85.74
2023-01-30T09:32:03.203Z,85.64
2023-01-30T09:33:03.520Z,85.43
2023-01-30T09:34:03.760Z,85.53
2023-01-30T09:35:03.954Z,85.53
2023-01-30T09:36:04.274Z,85.43
2023-01-30T09:37:05.211Z,85.12
2023-01-30T09:38:04.942Z,85.08
2023-01-30T09:39:05.169Z,84.98
2023-01-30T09:40:05.442Z,84.83
2023-01-30T09:41:05.671Z,84.42
2023-01-30T09:42:06.012Z,84.21
2023-01-30T09:43:06.642Z,83.90
2023-01-30T09:44:06.556Z,84.00
2023-01-30T09:45:06.760Z,84.00
2023-01-30T09:46:07.066Z,83.80
2023-01-30T09:47:07.350Z,83.69
2023-01-30T09:48:07.699Z,83.59
2023-01-30T09:49:07.910Z,83.38
2023-01-30T09:50:08.223Z,83.59
2023-01-30T09:51:08.477Z,83.48
2023-01-30T09:52:08.767Z,83.45
2023-01-30T09:53:08.990Z,83.34
2023-01-30T09:54:09.327Z,82.82
2023-01-30T09:55:09.566Z,82.97
2023-01-30T09:56:09.882Z,83.38
2023-01-30T09:57:21.904Z,83.38
2023-01-30T09:58:11.375Z,83.80
2023-01-30T09:59:10.656Z,83.80
2023-01-30T10:00:11.009Z,83.45
2023-01-30T10:01:11.274Z,83.24
2023-01-30T10:02:11.593Z,82.93
2023-01-30T10:03:11.905Z,82.82
2023-01-30T10:04:12.194Z,82.82
2023-01-30T10:05:12.493Z,82.82
2023-01-30T10:06:12.656Z,82.97
2023-01-30T10:07:12.910Z,83.38
2023-01-30T10:08:13.175Z,83.28
2023-01-30T10:09:13.897Z,83.28
2023-01-30T10:10:13.739Z,83.38
2023-01-30T10:11:14.010Z,83.38
2023-01-30T10:12:14.293Z,83.14
2023-01-30T10:13:14.545Z,83.03
2023-01-30T10:14:14.886Z,83.07
2023-01-30T10:15:15.175Z,83.38
2023-01-30T10:16:15.637Z,83.34
2023-01-30T10:17:15.760Z,83.17
2023-01-30T10:18:16.197Z,83.59
2023-01-30T10:19:26.125Z,83.69
2023-01-30T10:20:17.589Z,83.69
2023-01-30T10:21:16.790Z,83.90
2023-01-30T10:22:17.053Z,84.11
2023-01-30T10:23:17.332Z,84.21
2023-01-30T10:24:17.607Z,84.21
2023-01-30T10:25:17.983Z,84.31
2023-01-30T10:26:18.143Z,84.21
2023-01-30T10:27:18.415Z,84.00
2023-01-30T10:28:18.703Z,84.11
2023-01-30T10:29:18.971Z,84.36
2023-01-30T10:30:19.577Z,84.88
2023-01-30T10:31:19.561Z,84.94
2023-01-30T10:32:19.828Z,84.83
2023-01-30T10:33:20.095Z,84.83
2023-01-30T10:34:20.401Z,84.94
2023-01-30T10:35:20.632Z,85.04
2023-01-30T10:36:20.974Z,84.73
2023-01-30T10:37:21.287Z,84.83
2023-01-30T10:38:21.526Z,84.63
2023-01-30T10:39:21.781Z,84.52
2023-01-30T10:40:22.149Z,84.31
2023-01-30T10:41:22.376Z,84.11
2023-01-30T10:42:22.597Z,84.42
2023-01-30T10:43:22.886Z,84.52
2023-01-30T10:44:23.155Z,84.63
2023-01-30T10:45:23.405Z,84.94
2023-01-30T10:46:23.762Z,85.14
2023-01-30T10:47:24.383Z,85.14
2023-01-30T10:48:31.354Z,85.04
2023-01-30T10:49:25.821Z,84.94
2023-01-30T10:50:24.902Z,85.04
2023-01-30T10:51:25.179Z,85.04
2023-01-30T10:52:25.489Z,85.14
2023-01-30T10:53:25.834Z,85.35
2023-01-30T10:54:26.127Z,85.25
2023-01-30T10:55:36.839Z,85.14
2023-01-30T10:56:27.662Z,84.94
2023-01-30T10:57:26.918Z,84.83
2023-01-30T10:58:27.199Z,85.39
2023-01-30T10:59:27.426Z,85.71
2023-01-30T11:00:27.713Z,85.66
2023-01-30T11:01:28.134Z,85.66
2023-01-30T11:02:28.433Z,85.46
2023-01-30T11:03:28.570Z,85.04
2023-01-30T11:04:28.897Z,85.25
2023-01-30T11:05:29.190Z,85.35
2023-01-30T11:06:29.463Z,85.66
2023-01-30T11:07:29.683Z,85.91
2023-01-30T11:08:29.924Z,86.02
2023-01-30T11:09:30.237Z,86.12
2023-01-30T11:10:30.467Z,86.22
2023-01-30T11:11:30.733Z,86.02
2023-01-30T11:12:31.018Z,85.87
2023-01-30T11:13:31.247Z,85.97
2023-01-30T11:14:31.607Z,85.87
2023-01-30T11:15:31.820Z,85.91
2023-01-30T11:16:32.200Z,86.12
2023-01-30T11:17:32.553Z,86.43
2023-01-30T11:19:17.759Z,86.64
2023-01-30T11:19:34.099Z,86.74
2023-01-30T11:20:33.471Z,86.64
2023-01-30T11:21:43.676Z,86.43
2023-01-30T11:22:35.439Z,86.43
2023-01-30T11:23:34.317Z,86.33
2023-01-30T11:24:34.572Z,86.43
2023-01-30T11:25:34.880Z,86.33
2023-01-30T11:26:46.880Z,86.22
2023-01-30T11:27:36.381Z,86.08
2023-01-30T11:28:35.716Z,86.08
2023-01-30T11:29:35.926Z,86.08
2023-01-30T11:30:36.216Z,85.87
2023-01-30T11:31:41.607Z,85.77
2023-01-30T11:32:37.779Z,85.77
2023-01-30T11:33:37.106Z,85.77
2023-01-30T11:34:37.397Z,86.08
2023-01-30T11:35:37.671Z,86.29
2023-01-30T11:36:38.000Z,86.18
2023-01-30T11:37:38.231Z,86.08
2023-01-30T11:38:38.536Z,85.87
2023-01-30T11:39:38.854Z,85.97
2023-01-30T11:40:39.142Z,86.18
2023-01-30T11:41:39.549Z,86.18
2023-01-30T11:42:40.884Z,86.64
2023-01-30T11:43:39.928Z,86.60
2023-01-30T11:44:40.223Z,86.64
2023-01-30T11:45:40.600Z,86.80
2023-01-30T11:46:41.056Z,86.70
2023-01-30T11:47:43.218Z,86.60
2023-01-30T11:49:11.063Z,86.85
2023-01-30T11:49:45.781Z,87.16
2023-01-30T11:50:44.669Z,87.26
2023-01-30T11:51:42.470Z,87.12
2023-01-30T11:52:42.803Z,87.16
2023-01-30T11:53:45.078Z,87.22
2023-01-30T11:54:43.362Z,87.22
2023-01-30T11:55:56.492Z,86.91
2023-01-30T11:56:44.837Z,86.70
2023-01-30T11:57:44.116Z,86.70
2023-01-30T11:58:44.405Z,86.70
2023-01-30T11:59:44.784Z,86.70
2023-01-30T12:00:45.129Z,86.66
2023-01-30T12:01:45.340Z,86.55
2023-01-30T12:02:45.793Z,86.45
2023-01-30T12:03:45.873Z,86.35
2023-01-30T12:04:46.202Z,86.21
2023-01-30T12:05:46.412Z,85.79
2023-01-30T12:06:46.739Z,85.48
2023-01-30T12:07:46.959Z,85.13
2023-01-30T12:08:47.231Z,84.51
2023-01-30T12:09:47.774Z,84.51
2023-01-30T12:10:47.736Z,84.65
2023-01-30T12:11:48.068Z,84.82
2023-01-30T12:12:48.310Z,84.58
2023-01-30T12:13:48.591Z,84.27
2023-01-30T12:14:48.855Z,83.64
2023-01-30T12:15:49.151Z,83.33
2023-01-30T12:16:49.392Z,83.23
2023-01-30T12:17:49.637Z,83.12
2023-01-30T12:18:49.959Z,83.09
2023-01-30T12:19:50.377Z,82.78
2023-01-30T12:20:50.500Z,82.43
2023-01-30T12:21:50.809Z,81.81
2023-01-30T12:22:51.043Z,81.15
2023-01-30T12:23:51.365Z,80.43
2023-01-30T12:24:51.679Z,79.97
2023-01-30T12:25:51.883Z,79.87
2023-01-30T12:26:52.124Z,79.91
2023-01-30T12:27:52.371Z,80.01
2023-01-30T12:28:52.617Z,80.22
2023-01-30T12:29:52.894Z,80.32
2023-01-30T12:30:53.246Z,80.32
2023-01-30T12:31:54.163Z,80.18
2023-01-30T12:32:53.811Z,80.08
2023-01-30T12:33:54.117Z,80.08
2023-01-30T12:34:54.381Z,79.87
2023-01-30T12:35:54.732Z,79.87
2023-01-30T12:36:54.961Z,79.77
2023-01-30T12:37:55.257Z,79.87
2023-01-30T12:38:55.527Z,79.97
2023-01-30T12:39:55.816Z,80.18
2023-01-30T12:40:56.182Z,80.08
2023-01-30T12:41:56.388Z,80.18
2023-01-30T12:42:56.640Z,80.18
2023-01-30T12:43:56.927Z,80.32
2023-01-30T12:44:57.241Z,80.29
2023-01-30T12:45:57.529Z,80.29
2023-01-30T12:46:57.897Z,80.18
2023-01-30T12:47:57.995Z,80.18
2023-01-30T12:49:13.220Z,80.29
2023-01-30T12:49:59.602Z,80.08
2023-01-30T12:50:58.893Z,80.29
2023-01-30T12:51:59.127Z,80.29
2023-01-30T12:52:59.401Z,80.39
2023-01-30T12:53:59.664Z,80.49
2023-01-30T12:54:59.922Z,80.39
2023-01-30T12:56:00.222Z,80.29